sensor_id;sensor_type;location;lat;lon;timestamp;P1;durP1;ratioP1;P2;durP2;ratioP2
70444;SDS011;57902;49.638;11.070;2023-02-01T00:00:27;6.88;;;2.58;;
70444;SDS011;57902;49.638;11.070;2023-02-01T00:02:56;6.28;;;2.50;;
70444;SDS011;57902;49.638;11.070;2023-02-01T00:05:23;5.82;;;2.50;;
70444;SDS011;57902;49.638;11.070;2023-02-01T00:07:49;6.60;;;2.78;;
70444;SDS011;57902;49.638;11.070;2023-02-01T00:10:16;6.85;;;2.60;;
70444;SDS011;57902;49.638;11.070;2023-02-01T00:12:43;6.85;;;2.65;;
70444;SDS011;57902;49.638;11.070;2023-02-01T00:15:09;6.10;;;2.53;;
70444;SDS011;57902;49.638;11.070;2023-02-01T00:17:36;7.13;;;2.90;;
70444;SDS011;57902;49.638;11.070;2023-02-01T00:20:02;8.40;;;2.78;;
70444;SDS011;57902;49.638;11.070;2023-02-01T00:22:29;6.35;;;2.70;;
70444;SDS011;57902;49.638;11.070;2023-02-01T00:24:56;7.53;;;2.95;;
70444;SDS011;57902;49.638;11.070;2023-02-01T00:27:22;8.57;;;3.10;;
70444;SDS011;57902;49.638;11.070;2023-02-01T00:29:48;10.70;;;3.28;;
70444;SDS011;57902;49.638;11.070;2023-02-01T00:32:15;9.27;;;3.22;;
70444;SDS011;57902;49.638;11.070;2023-02-01T00:34:41;8.55;;;3.42;;
70444;SDS011;57902;49.638;11.070;2023-02-01T00:37:08;9.32;;;3.13;;
70444;SDS011;57902;49.638;11.070;2023-02-01T00:39:34;8.80;;;3.10;;
70444;SDS011;57902;49.638;11.070;2023-02-01T00:42:01;8.82;;;3.10;;
70444;SDS011;57902;49.638;11.070;2023-02-01T00:44:28;7.43;;;3.50;;
70444;SDS011;57902;49.638;11.070;2023-02-01T00:46:59;7.45;;;3.30;;
70444;SDS011;57902;49.638;11.070;2023-02-01T00:49:26;8.95;;;3.30;;
70444;SDS011;57902;49.638;11.070;2023-02-01T00:51:53;7.88;;;3.45;;
70444;SDS011;57902;49.638;11.070;2023-02-01T00:54:20;9.25;;;3.40;;
70444;SDS011;57902;49.638;11.070;2023-02-01T00:56:46;7.90;;;2.90;;
70444;SDS011;57902;49.638;11.070;2023-02-01T00:59:16;9.25;;;3.53;;
70444;SDS011;57902;49.638;11.070;2023-02-01T01:01:42;7.35;;;2.95;;
70444;SDS011;57902;49.638;11.070;2023-02-01T01:04:09;7.70;;;3.05;;
70444;SDS011;57902;49.638;11.070;2023-02-01T01:06:35;9.70;;;3.20;;
70444;SDS011;57902;49.638;11.070;2023-02-01T01:09:03;6.18;;;2.95;;
70444;SDS011;57902;49.638;11.070;2023-02-01T01:11:34;8.18;;;3.25;;
70444;SDS011;57902;49.638;11.070;2023-02-01T01:14:03;8.43;;;3.47;;
70444;SDS011;57902;49.638;11.070;2023-02-01T01:16:31;7.65;;;3.20;;
70444;SDS011;57902;49.638;11.070;2023-02-01T01:18:58;8.48;;;3.13;;
70444;SDS011;57902;49.638;11.070;2023-02-01T01:21:25;6.75;;;2.80;;
70444;SDS011;57902;49.638;11.070;2023-02-01T01:23:53;7.53;;;2.90;;
70444;SDS011;57902;49.638;11.070;2023-02-01T01:26:21;6.40;;;2.42;;
70444;SDS011;57902;49.638;11.070;2023-02-01T01:28:49;5.45;;;2.40;;
70444;SDS011;57902;49.638;11.070;2023-02-01T01:31:17;6.18;;;2.55;;
70444;SDS011;57902;49.638;11.070;2023-02-01T01:33:52;7.15;;;2.75;;
70444;SDS011;57902;49.638;11.070;2023-02-01T01:36:20;7.18;;;2.63;;
70444;SDS011;57902;49.638;11.070;2023-02-01T01:38:47;5.18;;;2.03;;
70444;SDS011;57902;49.638;11.070;2023-02-01T01:41:19;6.13;;;2.40;;
70444;SDS011;57902;49.638;11.070;2023-02-01T01:46:42;5.90;;;2.33;;
70444;SDS011;57902;49.638;11.070;2023-02-01T01:49:09;5.28;;;2.42;;
70444;SDS011;57902;49.638;11.070;2023-02-01T01:51:43;5.57;;;2.38;;
70444;SDS011;57902;49.638;11.070;2023-02-01T01:54:16;5.80;;;2.50;;
70444;SDS011;57902;49.638;11.070;2023-02-01T01:56:49;5.78;;;2.53;;
70444;SDS011;57902;49.638;11.070;2023-02-01T01:59:22;5.53;;;2.55;;
70444;SDS011;57902;49.638;11.070;2023-02-01T02:01:50;6.03;;;2.70;;
70444;SDS011;57902;49.638;11.070;2023-02-01T02:04:18;5.30;;;2.15;;
70444;SDS011;57902;49.638;11.070;2023-02-01T02:06:55;6.05;;;2.70;;
70444;SDS011;57902;49.638;11.070;2023-02-01T02:09:25;5.88;;;2.70;;
70444;SDS011;57902;49.638;11.070;2023-02-01T02:11:52;6.53;;;2.67;;
70444;SDS011;57902;49.638;11.070;2023-02-01T02:14:19;6.57;;;2.60;;
70444;SDS011;57902;49.638;11.070;2023-02-01T02:17:30;6.85;;;2.88;;
70444;SDS011;57902;49.638;11.070;2023-02-01T02:19:46;6.00;;;2.75;;
70444;SDS011;57902;49.638;11.070;2023-02-01T02:34:18;7.13;;;2.90;;
70444;SDS011;57902;49.638;11.070;2023-02-01T02:45:51;9.30;;;2.95;;
70444;SDS011;57902;49.638;11.070;2023-02-01T02:48:47;6.22;;;2.45;;
70444;SDS011;57902;49.638;11.070;2023-02-01T02:51:23;6.40;;;2.70;;
70444;SDS011;57902;49.638;11.070;2023-02-01T02:54:24;9.07;;;3.17;;
70444;SDS011;57902;49.638;11.070;2023-02-01T02:57:29;7.88;;;2.80;;
70444;SDS011;57902;49.638;11.070;2023-02-01T03:00:18;8.00;;;2.80;;
70444;SDS011;57902;49.638;11.070;2023-02-01T03:03:06;8.65;;;3.03;;
70444;SDS011;57902;49.638;11.070;2023-02-01T03:05:52;7.25;;;2.97;;
70444;SDS011;57902;49.638;11.070;2023-02-01T03:08:22;5.78;;;2.55;;
70444;SDS011;57902;49.638;11.070;2023-02-01T03:11:07;6.50;;;2.80;;
70444;SDS011;57902;49.638;11.070;2023-02-01T03:16:24;6.32;;;2.70;;
70444;SDS011;57902;49.638;11.070;2023-02-01T03:18:57;7.80;;;2.83;;
70444;SDS011;57902;49.638;11.070;2023-02-01T03:21:37;5.32;;;2.58;;
70444;SDS011;57902;49.638;11.070;2023-02-01T03:24:18;7.30;;;2.72;;
70444;SDS011;57902;49.638;11.070;2023-02-01T03:26:53;6.05;;;2.60;;
70444;SDS011;57902;49.638;11.070;2023-02-01T03:29:35;5.93;;;2.53;;
70444;SDS011;57902;49.638;11.070;2023-02-01T03:32:06;6.38;;;2.72;;
70444;SDS011;57902;49.638;11.070;2023-02-01T03:34:35;5.93;;;2.45;;
70444;SDS011;57902;49.638;11.070;2023-02-01T03:37:03;6.03;;;2.20;;
70444;SDS011;57902;49.638;11.070;2023-02-01T03:39:35;5.85;;;2.47;;
70444;SDS011;57902;49.638;11.070;2023-02-01T03:42:10;6.95;;;2.40;;
70444;SDS011;57902;49.638;11.070;2023-02-01T03:47:55;6.18;;;2.60;;
70444;SDS011;57902;49.638;11.070;2023-02-01T03:50:26;7.82;;;2.63;;
70444;SDS011;57902;49.638;11.070;2023-02-01T03:52:56;5.00;;;2.30;;
70444;SDS011;57902;49.638;11.070;2023-02-01T03:55:27;6.20;;;2.33;;
70444;SDS011;57902;49.638;11.070;2023-02-01T03:58:01;7.93;;;2.70;;
70444;SDS011;57902;49.638;11.070;2023-02-01T04:00:32;6.07;;;2.33;;
70444;SDS011;57902;49.638;11.070;2023-02-01T04:02:59;6.75;;;2.67;;
70444;SDS011;57902;49.638;11.070;2023-02-01T04:05:26;5.80;;;2.40;;
70444;SDS011;57902;49.638;11.070;2023-02-01T04:07:52;8.07;;;3.38;;
70444;SDS011;57902;49.638;11.070;2023-02-01T04:10:20;7.43;;;2.92;;
70444;SDS011;57902;49.638;11.070;2023-02-01T04:12:47;7.70;;;3.28;;
70444;SDS011;57902;49.638;11.070;2023-02-01T04:15:13;7.43;;;3.03;;
70444;SDS011;57902;49.638;11.070;2023-02-01T04:17:40;6.43;;;3.13;;
70444;SDS011;57902;49.638;11.070;2023-02-01T04:20:07;7.70;;;3.10;;
70444;SDS011;57902;49.638;11.070;2023-02-01T04:22:35;8.55;;;3.30;;
70444;SDS011;57902;49.638;11.070;2023-02-01T04:25:01;7.43;;;3.05;;
70444;SDS011;57902;49.638;11.070;2023-02-01T04:27:28;9.10;;;4.20;;
70444;SDS011;57902;49.638;11.070;2023-02-01T04:29:54;7.97;;;3.38;;
70444;SDS011;57902;49.638;11.070;2023-02-01T04:32:23;7.53;;;3.38;;
70444;SDS011;57902;49.638;11.070;2023-02-01T04:34:50;7.65;;;3.67;;
70444;SDS011;57902;49.638;11.070;2023-02-01T04:37:16;8.80;;;3.55;;
70444;SDS011;57902;49.638;11.070;2023-02-01T04:39:43;7.50;;;3.30;;
70444;SDS011;57902;49.638;11.070;2023-02-01T04:42:09;8.77;;;3.60;;
70444;SDS011;57902;49.638;11.070;2023-02-01T04:44:36;10.88;;;3.30;;
70444;SDS011;57902;49.638;11.070;2023-02-01T04:47:05;8.75;;;3.28;;
70444;SDS011;57902;49.638;11.070;2023-02-01T04:49:32;7.20;;;3.08;;
70444;SDS011;57902;49.638;11.070;2023-02-01T04:51:58;7.28;;;3.08;;
70444;SDS011;57902;49.638;11.070;2023-02-01T04:54:24;7.53;;;3.15;;
70444;SDS011;57902;49.638;11.070;2023-02-01T04:56:51;8.50;;;3.10;;
70444;SDS011;57902;49.638;11.070;2023-02-01T04:59:17;7.65;;;3.25;;
70444;SDS011;57902;49.638;11.070;2023-02-01T05:01:47;6.88;;;3.03;;
70444;SDS011;57902;49.638;11.070;2023-02-01T05:04:14;9.48;;;3.40;;
70444;SDS011;57902;49.638;11.070;2023-02-01T05:06:40;7.38;;;3.28;;
70444;SDS011;57902;49.638;11.070;2023-02-01T05:09:07;6.25;;;2.80;;
70444;SDS011;57902;49.638;11.070;2023-02-01T05:11:33;6.10;;;2.67;;
70444;SDS011;57902;49.638;11.070;2023-02-01T05:14:18;9.00;;;3.15;;
70444;SDS011;57902;49.638;11.070;2023-02-01T05:16:46;8.90;;;3.55;;
70444;SDS011;57902;49.638;11.070;2023-02-01T05:19:12;8.40;;;3.38;;
70444;SDS011;57902;49.638;11.070;2023-02-01T05:21:38;7.43;;;3.08;;
70444;SDS011;57902;49.638;11.070;2023-02-01T05:24:05;7.60;;;3.25;;
70444;SDS011;57902;49.638;11.070;2023-02-01T05:26:40;9.95;;;3.45;;
70444;SDS011;57902;49.638;11.070;2023-02-01T05:29:07;5.63;;;2.95;;
70444;SDS011;57902;49.638;11.070;2023-02-01T05:31:35;7.13;;;3.08;;
70444;SDS011;57902;49.638;11.070;2023-02-01T05:34:03;8.77;;;3.33;;
70444;SDS011;57902;49.638;11.070;2023-02-01T05:36:30;7.25;;;2.88;;
70444;SDS011;57902;49.638;11.070;2023-02-01T05:38:57;6.50;;;2.83;;
70444;SDS011;57902;49.638;11.070;2023-02-01T05:41:23;7.18;;;3.30;;
70444;SDS011;57902;49.638;11.070;2023-02-01T05:43:50;5.95;;;2.60;;
70444;SDS011;57902;49.638;11.070;2023-02-01T05:46:16;8.70;;;3.03;;
70444;SDS011;57902;49.638;11.070;2023-02-01T05:48:43;7.05;;;2.75;;
70444;SDS011;57902;49.638;11.070;2023-02-01T05:51:10;4.80;;;1.90;;
70444;SDS011;57902;49.638;11.070;2023-02-01T05:53:36;11.95;;;2.60;;
70444;SDS011;57902;49.638;11.070;2023-02-01T05:56:03;5.93;;;2.20;;
70444;SDS011;57902;49.638;11.070;2023-02-01T05:58:30;6.20;;;2.13;;
70444;SDS011;57902;49.638;11.070;2023-02-01T06:01:01;12.73;;;2.97;;
70444;SDS011;57902;49.638;11.070;2023-02-01T06:03:29;13.00;;;3.40;;
70444;SDS011;57902;49.638;11.070;2023-02-01T06:05:55;10.68;;;2.65;;
70444;SDS011;57902;49.638;11.070;2023-02-01T06:08:22;7.90;;;2.50;;
70444;SDS011;57902;49.638;11.070;2023-02-01T06:10:56;9.02;;;2.00;;
70444;SDS011;57902;49.638;11.070;2023-02-01T06:13:24;12.45;;;3.22;;
70444;SDS011;57902;49.638;11.070;2023-02-01T06:15:50;7.28;;;1.75;;
70444;SDS011;57902;49.638;11.070;2023-02-01T06:18:17;8.70;;;2.03;;
70444;SDS011;57902;49.638;11.070;2023-02-01T06:20:44;11.68;;;4.22;;
70444;SDS011;57902;49.638;11.070;2023-02-01T06:23:10;9.95;;;2.85;;
70444;SDS011;57902;49.638;11.070;2023-02-01T06:25:40;7.05;;;2.20;;
70444;SDS011;57902;49.638;11.070;2023-02-01T06:28:06;5.40;;;1.55;;
70444;SDS011;57902;49.638;11.070;2023-02-01T06:30:34;7.70;;;1.70;;
70444;SDS011;57902;49.638;11.070;2023-02-01T06:33:00;5.90;;;1.33;;
70444;SDS011;57902;49.638;11.070;2023-02-01T06:35:27;5.68;;;2.08;;
70444;SDS011;57902;49.638;11.070;2023-02-01T06:37:53;7.55;;;1.38;;
70444;SDS011;57902;49.638;11.070;2023-02-01T06:40:23;4.43;;;1.65;;
70444;SDS011;57902;49.638;11.070;2023-02-01T06:42:50;4.35;;;1.20;;
70444;SDS011;57902;49.638;11.070;2023-02-01T06:45:16;2.75;;;1.20;;
70444;SDS011;57902;49.638;11.070;2023-02-01T06:47:42;4.47;;;1.55;;
70444;SDS011;57902;49.638;11.070;2023-02-01T06:50:09;6.35;;;1.25;;
70444;SDS011;57902;49.638;11.070;2023-02-01T06:52:36;2.88;;;1.30;;
70444;SDS011;57902;49.638;11.070;2023-02-01T06:55:02;4.10;;;1.10;;
70444;SDS011;57902;49.638;11.070;2023-02-01T06:57:29;3.05;;;1.10;;
70444;SDS011;57902;49.638;11.070;2023-02-01T06:59:56;3.55;;;1.00;;
70444;SDS011;57902;49.638;11.070;2023-02-01T07:02:24;2.58;;;0.95;;
70444;SDS011;57902;49.638;11.070;2023-02-01T07:04:51;3.35;;;1.35;;
70444;SDS011;57902;49.638;11.070;2023-02-01T07:07:17;2.92;;;1.08;;
70444;SDS011;57902;49.638;11.070;2023-02-01T07:09:45;3.72;;;1.27;;
70444;SDS011;57902;49.638;11.070;2023-02-01T07:12:12;2.00;;;0.90;;
70444;SDS011;57902;49.638;11.070;2023-02-01T07:14:38;2.15;;;1.00;;
70444;SDS011;57902;49.638;11.070;2023-02-01T07:17:05;3.60;;;1.48;;
70444;SDS011;57902;49.638;11.070;2023-02-01T07:19:31;3.63;;;1.23;;
70444;SDS011;57902;49.638;11.070;2023-02-01T07:21:58;3.35;;;1.25;;
70444;SDS011;57902;49.638;11.070;2023-02-01T07:24:24;3.28;;;1.05;;
70444;SDS011;57902;49.638;11.070;2023-02-01T07:26:51;5.30;;;1.15;;
70444;SDS011;57902;49.638;11.070;2023-02-01T07:29:18;4.65;;;1.90;;
70444;SDS011;57902;49.638;11.070;2023-02-01T07:31:45;2.88;;;1.40;;
70444;SDS011;57902;49.638;11.070;2023-02-01T07:34:11;2.72;;;1.20;;
70444;SDS011;57902;49.638;11.070;2023-02-01T07:36:38;4.70;;;2.05;;
70444;SDS011;57902;49.638;11.070;2023-02-01T07:39:04;7.43;;;2.15;;
70444;SDS011;57902;49.638;11.070;2023-02-01T07:41:31;5.00;;;1.50;;
70444;SDS011;57902;49.638;11.070;2023-02-01T07:43:57;4.53;;;1.63;;
70444;SDS011;57902;49.638;11.070;2023-02-01T07:46:24;5.50;;;1.80;;
70444;SDS011;57902;49.638;11.070;2023-02-01T07:48:50;3.53;;;1.60;;
70444;SDS011;57902;49.638;11.070;2023-02-01T07:51:17;5.22;;;1.92;;
70444;SDS011;57902;49.638;11.070;2023-02-01T07:53:44;6.65;;;1.73;;
70444;SDS011;57902;49.638;11.070;2023-02-01T07:56:12;7.88;;;2.00;;
70444;SDS011;57902;49.638;11.070;2023-02-01T08:01:11;7.78;;;3.13;;
70444;SDS011;57902;49.638;11.070;2023-02-01T08:03:46;7.63;;;2.22;;
70444;SDS011;57902;49.638;11.070;2023-02-01T08:06:14;6.00;;;2.25;;
70444;SDS011;57902;49.638;11.070;2023-02-01T08:08:41;12.15;;;2.70;;
70444;SDS011;57902;49.638;11.070;2023-02-01T08:11:11;14.52;;;3.70;;
70444;SDS011;57902;49.638;11.070;2023-02-01T08:13:37;9.55;;;2.70;;
70444;SDS011;57902;49.638;11.070;2023-02-01T08:16:05;8.48;;;2.70;;
70444;SDS011;57902;49.638;11.070;2023-02-01T08:18:34;8.70;;;2.92;;
70444;SDS011;57902;49.638;11.070;2023-02-01T08:21:05;12.13;;;3.92;;
70444;SDS011;57902;49.638;11.070;2023-02-01T08:23:34;16.13;;;4.03;;
70444;SDS011;57902;49.638;11.070;2023-02-01T08:28:31;16.23;;;4.38;;
70444;SDS011;57902;49.638;11.070;2023-02-01T08:30:58;15.80;;;5.03;;
70444;SDS011;57902;49.638;11.070;2023-02-01T08:33:24;15.45;;;4.57;;
70444;SDS011;57902;49.638;11.070;2023-02-01T08:35:51;9.80;;;2.90;;
70444;SDS011;57902;49.638;11.070;2023-02-01T08:38:17;12.30;;;3.40;;
70444;SDS011;57902;49.638;11.070;2023-02-01T08:40:43;23.25;;;4.90;;
70444;SDS011;57902;49.638;11.070;2023-02-01T08:43:11;12.32;;;3.60;;
70444;SDS011;57902;49.638;11.070;2023-02-01T08:45:39;16.85;;;4.22;;
70444;SDS011;57902;49.638;11.070;2023-02-01T08:48:06;12.55;;;3.15;;
70444;SDS011;57902;49.638;11.070;2023-02-01T08:50:32;18.10;;;4.60;;
70444;SDS011;57902;49.638;11.070;2023-02-01T08:52:58;16.92;;;5.10;;
70444;SDS011;57902;49.638;11.070;2023-02-01T08:55:25;21.55;;;5.43;;
70444;SDS011;57902;49.638;11.070;2023-02-01T08:57:52;14.35;;;3.80;;
70444;SDS011;57902;49.638;11.070;2023-02-01T09:00:19;8.65;;;2.20;;
70444;SDS011;57902;49.638;11.070;2023-02-01T09:02:45;13.60;;;4.00;;
70444;SDS011;57902;49.638;11.070;2023-02-01T09:05:12;10.45;;;3.25;;
70444;SDS011;57902;49.638;11.070;2023-02-01T09:07:40;14.23;;;4.25;;
70444;SDS011;57902;49.638;11.070;2023-02-01T09:10:06;14.52;;;4.38;;
70444;SDS011;57902;49.638;11.070;2023-02-01T09:12:34;12.38;;;3.50;;
70444;SDS011;57902;49.638;11.070;2023-02-01T09:17:32;9.75;;;2.60;;
70444;SDS011;57902;49.638;11.070;2023-02-01T09:19:58;14.68;;;3.75;;
70444;SDS011;57902;49.638;11.070;2023-02-01T09:22:25;11.55;;;2.72;;
70444;SDS011;57902;49.638;11.070;2023-02-01T09:24:52;14.02;;;3.50;;
70444;SDS011;57902;49.638;11.070;2023-02-01T09:27:20;10.10;;;2.80;;
70444;SDS011;57902;49.638;11.070;2023-02-01T09:29:47;12.68;;;3.30;;
70444;SDS011;57902;49.638;11.070;2023-02-01T09:32:19;8.68;;;2.40;;
70444;SDS011;57902;49.638;11.070;2023-02-01T09:34:46;16.27;;;4.32;;
70444;SDS011;57902;49.638;11.070;2023-02-01T09:37:13;9.32;;;2.60;;
70444;SDS011;57902;49.638;11.070;2023-02-01T09:39:40;13.88;;;3.30;;
70444;SDS011;57902;49.638;11.070;2023-02-01T09:45:17;16.15;;;3.67;;
70444;SDS011;57902;49.638;11.070;2023-02-01T09:47:49;12.27;;;2.67;;
70444;SDS011;57902;49.638;11.070;2023-02-01T09:50:20;13.77;;;3.20;;
70444;SDS011;57902;49.638;11.070;2023-02-01T09:53:01;11.77;;;3.05;;
70444;SDS011;57902;49.638;11.070;2023-02-01T09:55:39;12.98;;;3.30;;
70444;SDS011;57902;49.638;11.070;2023-02-01T09:58:13;11.75;;;2.90;;
70444;SDS011;57902;49.638;11.070;2023-02-01T10:00:53;7.05;;;2.08;;
70444;SDS011;57902;49.638;11.070;2023-02-01T10:03:23;9.75;;;2.38;;
70444;SDS011;57902;49.638;11.070;2023-02-01T10:06:00;10.20;;;2.58;;
70444;SDS011;57902;49.638;11.070;2023-02-01T10:17:44;15.45;;;3.33;;
70444;SDS011;57902;49.638;11.070;2023-02-01T10:20:29;26.05;;;5.70;;
70444;SDS011;57902;49.638;11.070;2023-02-01T10:28:43;12.55;;;2.70;;
70444;SDS011;57902;49.638;11.070;2023-02-01T10:31:14;11.88;;;2.45;;
70444;SDS011;57902;49.638;11.070;2023-02-01T10:33:53;12.90;;;2.83;;
70444;SDS011;57902;49.638;11.070;2023-02-01T10:36:26;15.20;;;3.58;;
70444;SDS011;57902;49.638;11.070;2023-02-01T10:38:57;21.85;;;4.55;;
70444;SDS011;57902;49.638;11.070;2023-02-01T10:41:30;13.75;;;3.45;;
70444;SDS011;57902;49.638;11.070;2023-02-01T10:44:01;22.08;;;5.60;;
70444;SDS011;57902;49.638;11.070;2023-02-01T10:46:32;18.33;;;4.75;;
70444;SDS011;57902;49.638;11.070;2023-02-01T10:49:00;9.23;;;2.75;;
70444;SDS011;57902;49.638;11.070;2023-02-01T10:52:16;11.60;;;3.00;;
70444;SDS011;57902;49.638;11.070;2023-02-01T10:54:35;12.05;;;3.50;;
70444;SDS011;57902;49.638;11.070;2023-02-01T10:57:07;13.05;;;3.70;;
70444;SDS011;57902;49.638;11.070;2023-02-01T10:59:48;19.05;;;5.40;;
70444;SDS011;57902;49.638;11.070;2023-02-01T11:05:03;13.90;;;3.50;;
70444;SDS011;57902;49.638;11.070;2023-02-01T11:07:36;16.17;;;3.95;;
70444;SDS011;57902;49.638;11.070;2023-02-01T11:10:03;21.08;;;5.00;;
70444;SDS011;57902;49.638;11.070;2023-02-01T11:12:31;23.33;;;5.30;;
70444;SDS011;57902;49.638;11.070;2023-02-01T11:18:12;15.73;;;4.88;;
70444;SDS011;57902;49.638;11.070;2023-02-01T11:20:45;9.30;;;1.83;;
70444;SDS011;57902;49.638;11.070;2023-02-01T11:23:16;13.38;;;3.05;;
70444;SDS011;57902;49.638;11.070;2023-02-01T11:25:51;8.90;;;2.30;;
70444;SDS011;57902;49.638;11.070;2023-02-01T11:28:21;9.82;;;1.98;;
70444;SDS011;57902;49.638;11.070;2023-02-01T11:30:53;8.10;;;1.83;;
70444;SDS011;57902;49.638;11.070;2023-02-01T11:33:24;6.78;;;2.22;;
70444;SDS011;57902;49.638;11.070;2023-02-01T11:35:56;8.15;;;2.00;;
70444;SDS011;57902;49.638;11.070;2023-02-01T11:38:28;10.23;;;2.17;;
70444;SDS011;57902;49.638;11.070;2023-02-01T11:43:52;10.27;;;2.60;;
70444;SDS011;57902;49.638;11.070;2023-02-01T11:46:27;10.43;;;2.60;;
70444;SDS011;57902;49.638;11.070;2023-02-01T11:49:13;15.38;;;3.97;;
70444;SDS011;57902;49.638;11.070;2023-02-01T11:55:04;18.25;;;5.38;;
70444;SDS011;57902;49.638;11.070;2023-02-01T11:57:54;26.48;;;5.07;;
70444;SDS011;57902;49.638;11.070;2023-02-01T12:17:52;16.23;;;2.95;;
70444;SDS011;57902;49.638;11.070;2023-02-01T12:23:16;9.95;;;2.10;;
70444;SDS011;57902;49.638;11.070;2023-02-01T12:25:57;9.93;;;2.00;;
70444;SDS011;57902;49.638;11.070;2023-02-01T12:39:41;13.90;;;2.55;;
70444;SDS011;57902;49.638;11.070;2023-02-01T12:44:56;18.83;;;2.55;;
70444;SDS011;57902;49.638;11.070;2023-02-01T12:47:30;9.07;;;1.77;;
70444;SDS011;57902;49.638;11.070;2023-02-01T12:51:13;13.65;;;2.00;;
70444;SDS011;57902;49.638;11.070;2023-02-01T12:53:15;9.48;;;1.65;;
70444;SDS011;57902;49.638;11.070;2023-02-01T12:55:57;10.13;;;2.17;;
70444;SDS011;57902;49.638;11.070;2023-02-01T13:01:21;8.02;;;1.52;;
70444;SDS011;57902;49.638;11.070;2023-02-01T13:04:34;13.02;;;2.80;;
70444;SDS011;57902;49.638;11.070;2023-02-01T13:07:28;8.52;;;2.15;;
70444;SDS011;57902;49.638;11.070;2023-02-01T13:10:07;10.07;;;1.98;;
70444;SDS011;57902;49.638;11.070;2023-02-01T13:12:47;13.40;;;2.58;;
70444;SDS011;57902;49.638;11.070;2023-02-01T13:15:25;9.05;;;2.10;;
70444;SDS011;57902;49.638;11.070;2023-02-01T13:17:55;14.18;;;3.30;;
70444;SDS011;57902;49.638;11.070;2023-02-01T13:20:37;12.15;;;2.35;;
70444;SDS011;57902;49.638;11.070;2023-02-01T13:23:23;12.20;;;3.55;;
70444;SDS011;57902;49.638;11.070;2023-02-01T13:25:53;7.47;;;1.85;;
70444;SDS011;57902;49.638;11.070;2023-02-01T13:31:56;9.88;;;2.10;;
70444;SDS011;57902;49.638;11.070;2023-02-01T13:34:28;12.43;;;2.85;;
70444;SDS011;57902;49.638;11.070;2023-02-01T13:42:53;11.15;;;2.50;;
70444;SDS011;57902;49.638;11.070;2023-02-01T13:45:23;8.93;;;2.40;;
70444;SDS011;57902;49.638;11.070;2023-02-01T13:47:54;12.70;;;2.40;;
70444;SDS011;57902;49.638;11.070;2023-02-01T13:50:30;9.40;;;1.77;;
70444;SDS011;57902;49.638;11.070;2023-02-01T13:55:27;8.02;;;1.40;;
70444;SDS011;57902;49.638;11.070;2023-02-01T13:58:01;7.93;;;1.63;;
70444;SDS011;57902;49.638;11.070;2023-02-01T14:03:07;6.82;;;1.92;;
70444;SDS011;57902;49.638;11.070;2023-02-01T14:24:01;15.52;;;2.33;;
70444;SDS011;57902;49.638;11.070;2023-02-01T14:34:58;16.05;;;2.08;;
70444;SDS011;57902;49.638;11.070;2023-02-01T14:37:29;9.73;;;2.00;;
70444;SDS011;57902;49.638;11.070;2023-02-01T14:39:58;12.48;;;2.28;;
70444;SDS011;57902;49.638;11.070;2023-02-01T14:42:43;11.27;;;2.20;;
70444;SDS011;57902;49.638;11.070;2023-02-01T14:48:41;8.05;;;2.10;;
70444;SDS011;57902;49.638;11.070;2023-02-01T14:50:41;13.80;;;2.40;;
70444;SDS011;57902;49.638;11.070;2023-02-01T14:55:44;14.05;;;2.58;;
70444;SDS011;57902;49.638;11.070;2023-02-01T15:01:02;14.07;;;3.47;;
70444;SDS011;57902;49.638;11.070;2023-02-01T15:03:49;14.25;;;2.40;;
70444;SDS011;57902;49.638;11.070;2023-02-01T15:09:47;5.95;;;1.50;;
70444;SDS011;57902;49.638;11.070;2023-02-01T15:14:32;8.05;;;1.95;;
70444;SDS011;57902;49.638;11.070;2023-02-01T15:17:00;12.48;;;2.60;;
70444;SDS011;57902;49.638;11.070;2023-02-01T15:19:28;8.57;;;1.63;;
70444;SDS011;57902;49.638;11.070;2023-02-01T15:21:57;8.52;;;2.10;;
70444;SDS011;57902;49.638;11.070;2023-02-01T15:24:26;14.65;;;2.35;;
70444;SDS011;57902;49.638;11.070;2023-02-01T15:26:54;6.82;;;1.50;;
70444;SDS011;57902;49.638;11.070;2023-02-01T15:29:23;10.07;;;2.10;;
70444;SDS011;57902;49.638;11.070;2023-02-01T15:31:55;9.95;;;1.83;;
70444;SDS011;57902;49.638;11.070;2023-02-01T15:34:22;15.27;;;2.15;;
70444;SDS011;57902;49.638;11.070;2023-02-01T15:51:27;11.80;;;2.45;;
70444;SDS011;57902;49.638;11.070;2023-02-01T15:53:57;11.23;;;2.40;;
70444;SDS011;57902;49.638;11.070;2023-02-01T15:56:28;11.63;;;1.98;;
70444;SDS011;57902;49.638;11.070;2023-02-01T15:59:00;8.52;;;1.92;;
70444;SDS011;57902;49.638;11.070;2023-02-01T16:01:28;10.02;;;2.47;;
70444;SDS011;57902;49.638;11.070;2023-02-01T16:04:03;12.18;;;1.92;;
70444;SDS011;57902;49.638;11.070;2023-02-01T16:06:44;9.93;;;1.58;;
70444;SDS011;57902;49.638;11.070;2023-02-01T16:09:41;11.18;;;1.85;;
70444;SDS011;57902;49.638;11.070;2023-02-01T16:12:26;7.38;;;1.50;;
70444;SDS011;57902;49.638;11.070;2023-02-01T16:14:56;12.90;;;2.63;;
70444;SDS011;57902;49.638;11.070;2023-02-01T16:17:22;11.93;;;2.08;;
70444;SDS011;57902;49.638;11.070;2023-02-01T16:19:49;22.77;;;4.85;;
70444;SDS011;57902;49.638;11.070;2023-02-01T16:22:16;13.00;;;2.78;;
70444;SDS011;57902;49.638;11.070;2023-02-01T16:24:43;7.22;;;2.47;;
70444;SDS011;57902;49.638;11.070;2023-02-01T16:27:09;16.38;;;2.33;;
70444;SDS011;57902;49.638;11.070;2023-02-01T16:29:36;13.60;;;1.95;;
70444;SDS011;57902;49.638;11.070;2023-02-01T16:32:02;12.18;;;1.83;;
70444;SDS011;57902;49.638;11.070;2023-02-01T16:34:30;10.38;;;2.30;;
70444;SDS011;57902;49.638;11.070;2023-02-01T16:36:57;16.25;;;3.45;;
70444;SDS011;57902;49.638;11.070;2023-02-01T16:39:24;21.65;;;3.90;;
70444;SDS011;57902;49.638;11.070;2023-02-01T16:41:51;27.17;;;4.25;;
70444;SDS011;57902;49.638;11.070;2023-02-01T16:44:17;29.45;;;4.45;;
70444;SDS011;57902;49.638;11.070;2023-02-01T16:46:44;22.85;;;4.85;;
70444;SDS011;57902;49.638;11.070;2023-02-01T16:49:22;9.50;;;1.77;;
70444;SDS011;57902;49.638;11.070;2023-02-01T16:51:50;12.52;;;2.25;;
70444;SDS011;57902;49.638;11.070;2023-02-01T16:54:20;16.02;;;2.80;;
70444;SDS011;57902;49.638;11.070;2023-02-01T16:56:47;16.27;;;3.17;;
70444;SDS011;57902;49.638;11.070;2023-02-01T16:59:13;24.17;;;4.97;;
70444;SDS011;57902;49.638;11.070;2023-02-01T17:01:41;18.80;;;3.85;;
70444;SDS011;57902;49.638;11.070;2023-02-01T17:04:09;18.33;;;2.60;;
70444;SDS011;57902;49.638;11.070;2023-02-01T17:06:36;23.75;;;3.78;;
70444;SDS011;57902;49.638;11.070;2023-02-01T17:09:04;12.55;;;3.05;;
70444;SDS011;57902;49.638;11.070;2023-02-01T17:11:31;14.93;;;2.92;;
70444;SDS011;57902;49.638;11.070;2023-02-01T17:14:17;10.30;;;2.00;;
70444;SDS011;57902;49.638;11.070;2023-02-01T17:16:46;11.27;;;2.03;;
70444;SDS011;57902;49.638;11.070;2023-02-01T17:21:47;11.25;;;2.50;;
70444;SDS011;57902;49.638;11.070;2023-02-01T17:24:17;10.23;;;2.08;;
70444;SDS011;57902;49.638;11.070;2023-02-01T17:26:45;8.57;;;1.65;;
70444;SDS011;57902;49.638;11.070;2023-02-01T17:29:12;13.57;;;2.70;;
70444;SDS011;57902;49.638;11.070;2023-02-01T17:31:39;11.07;;;2.20;;
70444;SDS011;57902;49.638;11.070;2023-02-01T17:34:09;21.98;;;4.40;;
70444;SDS011;57902;49.638;11.070;2023-02-01T17:36:37;7.88;;;1.40;;
70444;SDS011;57902;49.638;11.070;2023-02-01T17:39:05;9.77;;;2.13;;
70444;SDS011;57902;49.638;11.070;2023-02-01T17:41:31;10.65;;;2.97;;
70444;SDS011;57902;49.638;11.070;2023-02-01T17:43:59;10.23;;;2.08;;